createdAt,value
2019-05-21T00:02:04.951Z,56.07
2019-05-21T00:04:35.968Z,55.98
2019-05-21T00:07:07.192Z,56.06
2019-05-21T00:09:38.284Z,55.90
2019-05-21T00:12:09.582Z,55.89
2019-05-21T00:14:40.884Z,55.76
2019-05-21T00:17:12.113Z,55.76
2019-05-21T00:19:43.424Z,55.87
2019-05-21T00:22:14.413Z,55.62
2019-05-21T00:24:45.710Z,56.00
2019-05-21T00:27:17.078Z,56.48
2019-05-21T00:30:43.051Z,56.28
2019-05-21T00:34:08.584Z,56.28
2019-05-21T00:37:33.964Z,56.75
2019-05-21T00:40:59.461Z,56.70
2019-05-21T00:43:46.916Z,56.79
2019-05-21T00:46:18.001Z,56.95
2019-05-21T00:48:49.371Z,57.19
2019-05-21T00:51:20.779Z,57.04
2019-05-21T00:53:51.801Z,56.83
2019-05-21T00:56:23.327Z,56.70
2019-05-21T00:58:54.367Z,57.06
2019-05-21T01:01:25.535Z,56.86
2019-05-21T01:03:56.633Z,56.84
2019-05-21T01:06:27.902Z,56.86
2019-05-21T01:08:58.946Z,57.05
2019-05-21T01:11:29.859Z,57.30
2019-05-21T01:14:01.083Z,57.18
2019-05-21T01:16:32.588Z,57.53
2019-05-21T01:19:03.558Z,57.47
2019-05-21T01:21:34.593Z,57.37
2019-05-21T01:24:06.709Z,57.61
2019-05-21T01:26:37.806Z,57.67
2019-05-21T01:29:08.819Z,58.03
2019-05-21T01:31:39.855Z,57.82
2019-05-21T01:34:11.571Z,57.77
2019-05-21T01:36:43.031Z,57.78
2019-05-21T01:39:13.985Z,58.10
2019-05-21T01:41:44.871Z,58.07
2019-05-21T01:44:16.105Z,58.08
2019-05-21T01:46:47.259Z,58.28
2019-05-21T01:49:18.457Z,58.64
2019-05-21T01:51:49.720Z,58.75
2019-05-21T01:54:20.697Z,58.98
2019-05-21T01:56:51.992Z,58.68
2019-05-21T01:59:23.081Z,58.89
2019-05-21T02:01:54.705Z,58.90
2019-05-21T02:04:25.875Z,58.80
2019-05-21T02:06:57.151Z,58.95
2019-05-21T02:09:28.439Z,58.98
2019-05-21T02:11:59.431Z,58.93
2019-05-21T02:14:30.706Z,59.12
2019-05-21T02:17:01.797Z,59.61
2019-05-21T02:19:32.889Z,59.28
2019-05-21T02:22:03.857Z,59.46
2019-05-21T02:24:34.759Z,59.62
2019-05-21T02:27:05.917Z,59.58
2019-05-21T02:29:36.814Z,59.34
2019-05-21T02:32:07.701Z,59.47
2019-05-21T02:34:38.675Z,59.57
2019-05-21T02:37:09.861Z,59.52
2019-05-21T02:39:40.836Z,59.35
2019-05-21T02:42:12.239Z,59.33
2019-05-21T02:44:43.269Z,59.43
2019-05-21T02:47:14.644Z,59.64
2019-05-21T02:49:45.698Z,59.67
2019-05-21T02:52:16.859Z,59.63
2019-05-21T02:54:47.886Z,59.61
2019-05-21T02:57:19.129Z,59.51
2019-05-21T02:59:51.988Z,59.78
2019-05-21T03:02:36.785Z,59.56
2019-05-21T03:05:08.926Z,59.44
2019-05-21T03:07:39.968Z,59.25
2019-05-21T03:10:11.303Z,59.15
2019-05-21T03:12:42.311Z,58.94
2019-05-21T03:15:13.788Z,59.06
2019-05-21T03:17:44.893Z,58.95
2019-05-21T03:20:15.880Z,58.71
2019-05-21T03:22:47.117Z,58.69
2019-05-21T03:25:18.276Z,58.51
2019-05-21T03:27:49.371Z,58.22
2019-05-21T03:30:21.351Z,58.23
2019-05-21T03:32:52.473Z,58.15
2019-05-21T03:35:25.318Z,58.22
2019-05-21T03:37:57.857Z,58.60
2019-05-21T03:40:29.050Z,58.69
2019-05-21T03:43:00.321Z,58.06
2019-05-21T03:45:31.529Z,58.03
2019-05-21T03:48:02.695Z,58.01
2019-05-21T03:50:34.177Z,57.90
2019-05-21T03:53:05.214Z,57.41
2019-05-21T03:55:36.418Z,57.40
2019-05-21T03:58:07.323Z,57.21
2019-05-21T04:00:38.444Z,57.19
2019-05-21T04:03:09.761Z,57.01
2019-05-21T04:05:40.915Z,56.84
2019-05-21T04:08:12.071Z,56.52
2019-05-21T04:10:43.642Z,56.35
2019-05-21T04:13:14.718Z,57.00
2019-05-21T04:15:53.420Z,58.05
2019-05-21T04:18:28.952Z,58.24
2019-05-21T04:20:59.931Z,57.81
2019-05-21T04:23:31.220Z,57.89
2019-05-21T04:26:02.294Z,57.60
2019-05-21T04:28:33.634Z,57.78
2019-05-21T04:31:04.809Z,58.16
2019-05-21T04:33:36.260Z,57.54
2019-05-21T04:36:07.358Z,57.21
2019-05-21T04:38:38.414Z,56.67
2019-05-21T04:41:09.437Z,56.39
2019-05-21T04:43:40.396Z,56.24
2019-05-21T04:46:11.375Z,56.01
2019-05-21T04:48:42.523Z,55.78
2019-05-21T04:51:14.292Z,55.45
2019-05-21T04:53:45.726Z,55.23
2019-05-21T04:56:16.949Z,54.98
2019-05-21T04:58:48.220Z,54.71
2019-05-21T05:01:19.331Z,54.54
2019-05-21T05:03:50.383Z,54.31
2019-05-21T05:06:21.491Z,54.07
2019-05-21T05:08:52.703Z,53.91
2019-05-21T05:11:23.851Z,53.79
2019-05-21T05:13:55.209Z,53.61
2019-05-21T05:16:26.363Z,53.23
2019-05-21T05:18:57.527Z,52.98
2019-05-21T05:21:28.491Z,52.84
2019-05-21T05:23:59.774Z,52.68
2019-05-21T05:26:30.866Z,52.67
2019-05-21T05:29:02.034Z,52.54
2019-05-21T05:31:34.702Z,52.42
2019-05-21T05:34:05.957Z,51.87
2019-05-21T05:36:36.973Z,50.91
2019-05-21T05:39:09.023Z,51.01
2019-05-21T05:41:39.985Z,50.82
2019-05-21T05:44:11.180Z,50.65
2019-05-21T05:46:43.195Z,50.46
2019-05-21T05:49:15.779Z,50.26
2019-05-21T05:51:47.203Z,49.99
2019-05-21T05:54:18.309Z,49.65
2019-05-21T05:56:49.610Z,49.50
2019-05-21T05:59:20.713Z,49.29
2019-05-21T06:01:51.779Z,48.98
2019-05-21T06:04:22.959Z,49.03
2019-05-21T06:06:54.114Z,48.80
2019-05-21T06:09:26.477Z,48.37
2019-05-21T06:11:57.691Z,48.07
2019-05-21T06:14:28.770Z,47.67
2019-05-21T06:16:59.973Z,47.32
2019-05-21T06:19:31.522Z,47.41
2019-05-21T06:22:02.649Z,47.51
2019-05-21T06:24:33.833Z,47.39
2019-05-21T06:27:05.169Z,47.37
2019-05-21T06:29:39.569Z,47.46
2019-05-21T06:32:09.453Z,47.86
2019-05-21T06:34:40.671Z,47.77
2019-05-21T06:37:11.691Z,47.34
2019-05-21T06:39:42.947Z,46.99
2019-05-21T06:42:14.283Z,46.95
2019-05-21T06:44:45.371Z,46.74
2019-05-21T06:47:16.658Z,46.33
2019-05-21T06:49:49.353Z,45.65
2019-05-21T06:52:20.812Z,45.25
2019-05-21T06:54:51.771Z,44.91
2019-05-21T06:57:22.861Z,44.67
2019-05-21T06:59:54.097Z,44.26
2019-05-21T07:02:25.246Z,43.79
2019-05-21T07:04:56.453Z,43.41
2019-05-21T07:07:27.562Z,43.13
2019-05-21T07:09:58.571Z,42.57
2019-05-21T07:12:29.591Z,42.32
2019-05-21T07:15:00.909Z,42.30
2019-05-21T07:20:02.142Z,41.70
2019-05-21T07:22:33.424Z,40.97
2019-05-21T07:25:06.435Z,41.11
2019-05-21T07:27:37.499Z,41.21
2019-05-21T07:30:10.255Z,41.41
2019-05-21T07:32:41.303Z,41.72
2019-05-21T07:35:13.037Z,41.79
2019-05-21T07:37:44.283Z,41.63
2019-05-21T07:40:16.073Z,41.79
2019-05-21T07:42:47.381Z,41.70
2019-05-21T07:45:18.843Z,41.59
2019-05-21T07:47:49.894Z,41.44
2019-05-21T07:50:21.538Z,41.35
2019-05-21T07:52:52.584Z,40.99
2019-05-21T07:55:23.555Z,40.98
2019-05-21T07:57:54.699Z,40.54
2019-05-21T08:00:26.011Z,40.02
2019-05-21T08:02:56.982Z,39.63
2019-05-21T08:05:28.085Z,39.15
2019-05-21T08:07:59.213Z,38.83
2019-05-21T08:10:30.514Z,38.40
2019-05-21T08:13:01.980Z,37.96
2019-05-21T08:15:33.076Z,37.29
2019-05-21T08:18:03.992Z,37.34
2019-05-21T08:20:35.140Z,36.75
2019-05-21T08:23:06.285Z,36.48
2019-05-21T08:25:37.646Z,36.71
2019-05-21T08:28:09.294Z,36.74
2019-05-21T08:30:40.386Z,36.62
2019-05-21T08:33:11.521Z,36.70
2019-05-21T08:35:42.735Z,36.72
2019-05-21T08:38:13.721Z,36.67
2019-05-21T08:40:46.427Z,36.86
2019-05-21T08:43:17.536Z,36.50
2019-05-21T08:45:48.749Z,36.55
2019-05-21T08:48:19.869Z,36.41
2019-05-21T08:50:51.220Z,35.92
2019-05-21T08:53:22.511Z,35.99
2019-05-21T08:55:53.856Z,35.86
2019-05-21T08:58:25.694Z,35.44
2019-05-21T09:00:56.770Z,34.96
2019-05-21T09:03:28.109Z,33.51
2019-05-21T09:05:59.230Z,33.40
2019-05-21T09:08:30.222Z,32.90
2019-05-21T09:11:01.400Z,32.54
2019-05-21T09:13:33.895Z,31.63
2019-05-21T09:16:06.478Z,31.36
2019-05-21T09:18:39.769Z,31.47
2019-05-21T09:21:11.092Z,30.98
2019-05-21T09:23:42.252Z,30.91
2019-05-21T09:26:13.632Z,30.12
2019-05-21T09:28:44.848Z,29.91
2019-05-21T09:31:15.855Z,29.73
2019-05-21T09:33:47.311Z,30.57
2019-05-21T09:36:18.356Z,30.97
2019-05-21T09:38:49.444Z,31.16
2019-05-21T09:41:20.459Z,31.58
2019-05-21T09:43:51.784Z,31.79
2019-05-21T09:46:24.398Z,32.42
2019-05-21T09:48:56.163Z,32.63
2019-05-21T09:51:27.903Z,33.10
2019-05-21T09:53:58.980Z,33.25
2019-05-21T09:56:33.421Z,32.87
2019-05-21T09:59:10.341Z,31.90
2019-05-21T10:01:48.447Z,31.78
2019-05-21T10:04:19.723Z,31.16
2019-05-21T10:06:51.213Z,30.92
2019-05-21T10:09:22.365Z,30.42
2019-05-21T10:11:53.559Z,29.44
2019-05-21T10:14:24.696Z,28.42
2019-05-21T10:16:55.836Z,27.13
2019-05-21T10:19:26.988Z,26.13
2019-05-21T10:21:59.728Z,24.80
2019-05-21T10:24:30.948Z,24.21
2019-05-21T10:27:03.519Z,24.47
2019-05-21T10:29:34.976Z,21.57
2019-05-21T10:32:06.120Z,21.01
2019-05-21T10:34:37.578Z,21.03
2019-05-21T10:37:08.762Z,17.09
2019-05-21T10:39:40.009Z,18.54
2019-05-21T10:42:12.254Z,19.42
2019-05-21T10:44:43.430Z,19.87
2019-05-21T10:47:16.416Z,20.37
2019-05-21T10:49:47.541Z,19.94
2019-05-21T10:52:18.911Z,20.37
2019-05-21T10:54:50.038Z,20.10
2019-05-21T10:57:21.289Z,19.97
2019-05-21T10:59:52.576Z,20.66
2019-05-21T11:02:28.588Z,21.02
2019-05-21T11:05:01.486Z,21.03
2019-05-21T11:07:33.075Z,20.83
2019-05-21T11:10:07.411Z,20.51
2019-05-21T11:12:39.088Z,21.00
2019-05-21T11:15:12.016Z,20.88
2019-05-21T11:17:53.754Z,21.63
2019-05-21T11:20:16.484Z,22.67
2019-05-21T11:22:47.894Z,23.24
2019-05-21T11:25:19.038Z,24.25
2019-05-21T11:27:50.381Z,24.23
2019-05-21T11:30:22.461Z,23.79
2019-05-21T11:32:54.093Z,24.40
2019-05-21T11:35:25.326Z,23.93
2019-05-21T11:37:56.504Z,23.87
2019-05-21T11:40:28.186Z,22.91
2019-05-21T11:42:59.283Z,22.81
2019-05-21T11:45:32.730Z,22.80
2019-05-21T11:48:03.223Z,23.02
2019-05-21T11:50:34.810Z,23.67
2019-05-21T11:53:05.927Z,24.18
2019-05-21T11:55:37.168Z,24.62
2019-05-21T11:58:09.717Z,24.65
2019-05-21T12:00:41.032Z,24.99
2019-05-21T12:03:12.073Z,25.09
2019-05-21T12:05:43.436Z,25.82
2019-05-21T12:08:14.653Z,26.93
2019-05-21T12:10:46.633Z,27.29
2019-05-21T12:13:20.475Z,28.31
2019-05-21T12:15:50.955Z,28.40
2019-05-21T12:18:22.211Z,29.23
2019-05-21T12:20:53.543Z,31.26
2019-05-21T12:23:24.797Z,31.72
2019-05-21T12:25:55.993Z,32.83
2019-05-21T12:28:27.108Z,33.05
2019-05-21T12:30:59.689Z,33.34
2019-05-21T12:33:34.710Z,33.39
2019-05-21T12:36:03.785Z,33.84
2019-05-21T12:38:34.865Z,34.64
2019-05-21T12:41:05.967Z,35.29
2019-05-21T12:43:37.229Z,36.02
2019-05-21T12:46:08.352Z,36.37
2019-05-21T12:48:39.463Z,37.55
2019-05-21T12:51:10.652Z,38.02
2019-05-21T12:53:41.545Z,38.34
2019-05-21T12:56:12.672Z,38.80
2019-05-21T12:58:44.008Z,39.55
2019-05-21T13:01:15.472Z,40.13
2019-05-21T13:03:47.179Z,40.72
2019-05-21T13:06:18.761Z,40.95
2019-05-21T13:08:49.979Z,41.75
2019-05-21T13:11:21.085Z,41.67
2019-05-21T13:13:52.952Z,41.95
2019-05-21T13:16:24.143Z,42.47
2019-05-21T13:18:57.022Z,42.52
2019-05-21T13:21:28.331Z,42.58
2019-05-21T13:23:59.364Z,43.19
2019-05-21T13:26:30.449Z,43.41
2019-05-21T13:29:01.833Z,43.57
2019-05-21T13:31:33.062Z,43.87
2019-05-21T13:34:04.147Z,43.99
2019-05-21T13:36:35.218Z,44.35
2019-05-21T13:39:09.488Z,43.96
2019-05-21T13:41:40.565Z,44.14
2019-05-21T13:44:11.726Z,43.74
2019-05-21T13:46:42.828Z,43.39
2019-05-21T13:49:14.181Z,43.00
2019-05-21T13:51:45.308Z,42.60
2019-05-21T13:54:16.505Z,42.51
2019-05-21T13:56:47.807Z,42.84
2019-05-21T13:59:19.719Z,43.06
2019-05-21T14:01:51.093Z,43.31
2019-05-21T14:04:22.620Z,43.51
2019-05-21T14:06:54.028Z,43.51
2019-05-21T14:09:25.466Z,44.10
2019-05-21T14:11:56.531Z,44.51
2019-05-21T14:14:27.678Z,44.75
2019-05-21T14:16:58.919Z,44.96
2019-05-21T14:19:30.002Z,45.09
2019-05-21T14:22:01.223Z,45.06
2019-05-21T14:24:32.216Z,45.24
2019-05-21T14:27:03.426Z,44.79
2019-05-21T14:29:34.674Z,45.17
2019-05-21T14:32:06.069Z,44.66
2019-05-21T14:34:37.158Z,44.13
2019-05-21T14:37:08.709Z,43.53
2019-05-21T14:39:39.881Z,43.33
2019-05-21T14:42:10.920Z,42.72
2019-05-21T14:44:42.069Z,42.70
2019-05-21T14:47:13.195Z,42.53
2019-05-21T14:49:44.083Z,42.84
2019-05-21T14:52:15.057Z,43.16
2019-05-21T14:54:46.399Z,43.11
2019-05-21T14:57:17.677Z,42.67
2019-05-21T14:59:48.878Z,42.97
2019-05-21T15:02:19.976Z,42.82
2019-05-21T15:04:51.066Z,42.64
2019-05-21T15:07:22.339Z,42.71
2019-05-21T15:09:53.746Z,42.54
2019-05-21T15:12:25.382Z,42.89
2019-05-21T15:14:56.552Z,43.02
2019-05-21T15:17:27.812Z,43.15
2019-05-21T15:20:00.838Z,43.72
2019-05-21T15:22:32.292Z,43.83
2019-05-21T15:25:03.485Z,44.17
2019-05-21T15:27:34.701Z,44.58
2019-05-21T15:30:07.490Z,44.69
2019-05-21T15:32:38.614Z,45.04
2019-05-21T15:35:09.758Z,45.47
2019-05-21T15:37:44.821Z,45.53
2019-05-21T15:40:14.908Z,46.09
2019-05-21T15:42:46.164Z,46.17
2019-05-21T15:45:19.245Z,46.21
2019-05-21T15:47:50.471Z,46.26
2019-05-21T15:50:22.133Z,46.27
2019-05-21T15:52:53.327Z,46.55
2019-05-21T15:55:24.407Z,46.25
2019-05-21T15:57:55.611Z,46.29
2019-05-21T16:00:27.164Z,46.39
2019-05-21T16:02:58.944Z,46.71
2019-05-21T16:05:30.261Z,46.68
2019-05-21T16:08:01.557Z,46.69
2019-05-21T16:10:32.862Z,47.05
2019-05-21T16:13:04.578Z,47.18
2019-05-21T16:15:35.656Z,47.28
2019-05-21T16:18:08.223Z,47.50
2019-05-21T16:20:42.603Z,47.44
2019-05-21T16:23:13.527Z,47.67
2019-05-21T16:25:44.855Z,47.74
2019-05-21T16:28:16.025Z,48.25
2019-05-21T16:30:48.635Z,48.78
2019-05-21T16:33:19.947Z,48.58
2019-05-21T16:35:51.145Z,49.11
2019-05-21T16:38:23.083Z,49.99
2019-05-21T16:40:54.529Z,50.56
2019-05-21T16:43:25.653Z,50.50
2019-05-21T16:45:56.978Z,50.77
2019-05-21T16:48:28.235Z,51.39
2019-05-21T16:50:59.501Z,52.48
2019-05-21T16:53:30.633Z,52.76
2019-05-21T16:56:01.773Z,53.32
2019-05-21T16:58:33.027Z,53.75
2019-05-21T17:01:05.967Z,53.83
2019-05-21T17:03:37.154Z,54.70
2019-05-21T17:06:08.275Z,55.15
2019-05-21T17:08:39.537Z,55.53
2019-05-21T17:11:10.544Z,55.89
2019-05-21T17:13:41.840Z,56.23
2019-05-21T17:16:14.419Z,56.69
2019-05-21T17:18:45.538Z,57.33
2019-05-21T17:21:17.870Z,57.64
2019-05-21T17:23:48.806Z,58.66
2019-05-21T17:26:20.309Z,59.14
2019-05-21T17:28:51.318Z,59.71
2019-05-21T17:31:22.673Z,60.44
2019-05-21T17:33:53.828Z,60.11
2019-05-21T17:36:24.965Z,60.10
2019-05-21T17:38:56.271Z,60.22
2019-05-21T17:41:27.304Z,60.68
2019-05-21T17:43:58.359Z,60.50
2019-05-21T17:46:29.823Z,60.87
2019-05-21T17:49:00.999Z,61.35
2019-05-21T17:51:32.219Z,61.35
2019-05-21T17:54:03.635Z,61.63
2019-05-21T17:56:34.532Z,61.44
2019-05-21T17:59:05.782Z,62.29
2019-05-21T18:01:37.022Z,62.53
2019-05-21T18:04:08.630Z,62.46
2019-05-21T18:06:40.014Z,62.58
2019-05-21T18:09:13.721Z,62.75
2019-05-21T18:11:45.996Z,63.78
2019-05-21T18:14:17.750Z,64.47
2019-05-21T18:16:48.904Z,65.09
2019-05-21T18:19:20.886Z,65.66
2019-05-21T18:21:51.997Z,66.49
2019-05-21T18:24:24.183Z,67.27
2019-05-21T18:26:55.221Z,67.17
2019-05-21T18:29:26.269Z,67.68
2019-05-21T18:31:57.411Z,68.42
2019-05-21T18:34:28.518Z,68.69
2019-05-21T18:36:59.939Z,68.57
2019-05-21T18:39:31.237Z,69.29
2019-05-21T18:42:02.453Z,69.39
2019-05-21T18:44:33.606Z,69.93
2019-05-21T18:47:04.665Z,70.44
2019-05-21T18:49:35.878Z,70.75
2019-05-21T18:52:07.410Z,71.13
2019-05-21T18:54:38.846Z,71.47
2019-05-21T18:57:10.596Z,71.44
2019-05-21T18:59:42.158Z,71.63
2019-05-21T19:02:13.996Z,72.08
2019-05-21T19:04:45.403Z,72.22
2019-05-21T19:07:16.796Z,72.23
2019-05-21T19:09:47.953Z,72.81
2019-05-21T19:12:19.137Z,72.92
2019-05-21T19:14:50.442Z,73.42
2019-05-21T19:17:34.787Z,73.97
2019-05-21T19:19:54.674Z,74.19
2019-05-21T19:22:27.678Z,74.51
2019-05-21T19:24:58.817Z,74.97
2019-05-21T19:27:30.195Z,74.26
2019-05-21T19:30:02.859Z,75.62
2019-05-21T19:32:35.546Z,75.54
2019-05-21T19:35:24.280Z,75.28
2019-05-21T19:38:13.107Z,75.79
2019-05-21T19:41:01.832Z,75.73
2019-05-21T19:43:46.502Z,76.20
2019-05-21T19:46:35.012Z,75.95
2019-05-21T19:49:23.451Z,76.28
2019-05-21T19:52:01.853Z,76.94
2019-05-21T19:54:50.297Z,77.19
2019-05-21T19:57:40.361Z,77.03
2019-05-21T20:00:28.541Z,77.42
2019-05-21T20:03:17.513Z,77.78
2019-05-21T20:06:06.888Z,77.94
2019-05-21T20:08:57.244Z,78.06
2019-05-21T20:11:36.894Z,77.80
2019-05-21T20:14:15.674Z,77.84
2019-05-21T20:16:57.024Z,77.99
2019-05-21T20:19:47.843Z,77.33
2019-05-21T20:22:33.178Z,77.61
2019-05-21T20:25:23.989Z,78.06
2019-05-21T20:28:13.489Z,77.67
2019-05-21T20:31:02.669Z,77.50
2019-05-21T20:33:53.284Z,77.54
2019-05-21T20:36:42.150Z,77.56
2019-05-21T20:39:33.745Z,77.66
2019-05-21T20:42:05.921Z,77.45
2019-05-21T20:44:39.134Z,77.64
2019-05-21T20:47:12.345Z,77.53
2019-05-21T20:49:46.200Z,77.71
2019-05-21T20:52:20.283Z,77.64
2019-05-21T20:54:53.064Z,77.39
2019-05-21T20:57:25.331Z,77.29
2019-05-21T20:59:56.942Z,77.55
2019-05-21T21:02:28.656Z,77.57
2019-05-21T21:04:59.897Z,77.27
2019-05-21T21:07:30.994Z,77.63
2019-05-21T21:10:02.137Z,77.23
2019-05-21T21:12:34.945Z,77.04
2019-05-21T21:15:08.812Z,76.76
2019-05-21T21:17:40.164Z,77.09
2019-05-21T21:20:12.127Z,77.31
2019-05-21T21:22:43.397Z,77.55
2019-05-21T21:25:16.795Z,77.83
2019-05-21T21:27:47.974Z,77.74
2019-05-21T21:30:19.167Z,77.90
2019-05-21T21:32:51.983Z,78.25
2019-05-21T21:35:23.814Z,77.90
2019-05-21T21:37:55.554Z,77.93
2019-05-21T21:40:27.101Z,78.14
2019-05-21T21:42:58.595Z,78.30
2019-05-21T21:45:29.927Z,78.20
2019-05-21T21:48:01.692Z,78.21
2019-05-21T21:50:36.107Z,78.03
2019-05-21T21:53:07.825Z,78.52
2019-05-21T21:55:39.198Z,78.41
2019-05-21T21:58:10.784Z,78.16
2019-05-21T22:01:04.001Z,78.46
2019-05-21T22:03:38.214Z,78.08
2019-05-21T22:06:12.119Z,78.27
2019-05-21T22:08:43.486Z,78.43
2019-05-21T22:11:14.772Z,78.86
2019-05-21T22:13:45.891Z,79.78
2019-05-21T22:16:17.265Z,80.17
2019-05-21T22:18:48.969Z,79.79
2019-05-21T22:21:20.491Z,80.02
2019-05-21T22:23:51.857Z,80.10
2019-05-21T22:26:23.133Z,79.90
2019-05-21T22:28:54.389Z,80.22
2019-05-21T22:31:25.499Z,80.34
2019-05-21T22:33:56.843Z,80.83
2019-05-21T22:36:28.773Z,80.88
2019-05-21T22:38:59.928Z,81.10
2019-05-21T22:41:30.940Z,80.90
2019-05-21T22:44:02.502Z,81.59
2019-05-21T22:46:33.567Z,80.90
2019-05-21T22:49:04.862Z,81.16
2019-05-21T22:51:35.894Z,80.80
2019-05-21T22:54:07.317Z,81.62
2019-05-21T22:56:38.631Z,82.22
2019-05-21T22:59:10.383Z,82.51
2019-05-21T23:01:42.879Z,82.79
2019-05-21T23:04:14.454Z,82.55
2019-05-21T23:06:45.665Z,82.46
2019-05-21T23:09:17.150Z,82.32
2019-05-21T23:11:48.706Z,82.47
2019-05-21T23:14:19.952Z,81.98
2019-05-21T23:16:51.251Z,81.67
2019-05-21T23:19:24.393Z,81.30
2019-05-21T23:21:59.236Z,81.08
2019-05-21T23:24:30.566Z,81.29
2019-05-21T23:27:02.571Z,81.31
2019-05-21T23:29:34.782Z,82.06
2019-05-21T23:32:07.123Z,82.58
2019-05-21T23:34:39.905Z,82.47
2019-05-21T23:37:16.697Z,83.00
2019-05-21T23:39:49.962Z,83.03
2019-05-21T23:42:29.641Z,83.22
2019-05-21T23:44:54.912Z,83.17
2019-05-21T23:47:27.136Z,82.88
2019-05-21T23:49:58.760Z,82.36
2019-05-21T23:52:31.454Z,82.56
2019-05-21T23:55:02.904Z,82.70
2019-05-21T23:57:34.281Z,82.34
